sensor_id;sensor_type;location;lat;lon;timestamp;P1;durP1;ratioP1;P2;durP2;ratioP2
49910;SDS011;35803;53.096;5.844;2023-04-06T00:01:30;6.85;;;4.55;;
49910;SDS011;35803;53.096;5.844;2023-04-06T00:03:55;6.75;;;4.45;;
49910;SDS011;35803;53.096;5.844;2023-04-06T00:06:21;8.70;;;4.53;;
49910;SDS011;35803;53.096;5.844;2023-04-06T00:08:46;9.85;;;4.05;;
49910;SDS011;35803;53.096;5.844;2023-04-06T00:11:12;6.75;;;4.03;;
49910;SDS011;35803;53.096;5.844;2023-04-06T00:13:37;8.68;;;3.88;;
49910;SDS011;35803;53.096;5.844;2023-04-06T00:16:03;6.78;;;4.07;;
49910;SDS011;35803;53.096;5.844;2023-04-06T00:18:30;7.55;;;4.60;;
49910;SDS011;35803;53.096;5.844;2023-04-06T00:20:56;7.05;;;4.57;;
49910;SDS011;35803;53.096;5.844;2023-04-06T00:23:22;7.38;;;4.32;;
49910;SDS011;35803;53.096;5.844;2023-04-06T00:25:47;7.95;;;4.82;;
49910;SDS011;35803;53.096;5.844;2023-04-06T00:28:13;7.13;;;4.43;;
49910;SDS011;35803;53.096;5.844;2023-04-06T00:30:38;6.07;;;4.22;;
49910;SDS011;35803;53.096;5.844;2023-04-06T00:33:04;7.00;;;4.28;;
49910;SDS011;35803;53.096;5.844;2023-04-06T00:35:30;10.18;;;4.40;;
49910;SDS011;35803;53.096;5.844;2023-04-06T00:37:56;7.53;;;4.43;;
49910;SDS011;35803;53.096;5.844;2023-04-06T00:40:21;7.35;;;4.53;;
49910;SDS011;35803;53.096;5.844;2023-04-06T00:42:47;9.40;;;4.55;;
49910;SDS011;35803;53.096;5.844;2023-04-06T00:45:12;6.70;;;4.75;;
49910;SDS011;35803;53.096;5.844;2023-04-06T00:47:38;9.65;;;4.22;;
49910;SDS011;35803;53.096;5.844;2023-04-06T00:50:04;6.70;;;3.88;;
49910;SDS011;35803;53.096;5.844;2023-04-06T00:52:30;7.25;;;4.68;;
49910;SDS011;35803;53.096;5.844;2023-04-06T00:54:55;7.75;;;4.30;;
49910;SDS011;35803;53.096;5.844;2023-04-06T00:57:21;7.38;;;4.70;;
49910;SDS011;35803;53.096;5.844;2023-04-06T00:59:46;7.20;;;4.28;;
49910;SDS011;35803;53.096;5.844;2023-04-06T01:02:12;8.02;;;4.43;;
49910;SDS011;35803;53.096;5.844;2023-04-06T01:04:37;10.00;;;4.35;;
49910;SDS011;35803;53.096;5.844;2023-04-06T01:07:03;6.03;;;4.22;;
49910;SDS011;35803;53.096;5.844;2023-04-06T01:09:29;8.65;;;4.75;;
49910;SDS011;35803;53.096;5.844;2023-04-06T01:11:55;5.95;;;4.20;;
49910;SDS011;35803;53.096;5.844;2023-04-06T01:14:21;8.50;;;4.78;;
49910;SDS011;35803;53.096;5.844;2023-04-06T01:16:48;6.25;;;4.20;;
49910;SDS011;35803;53.096;5.844;2023-04-06T01:19:13;8.05;;;4.40;;
49910;SDS011;35803;53.096;5.844;2023-04-06T01:21:39;7.30;;;4.40;;
49910;SDS011;35803;53.096;5.844;2023-04-06T01:24:06;7.85;;;4.63;;
49910;SDS011;35803;53.096;5.844;2023-04-06T01:26:32;6.68;;;4.30;;
49910;SDS011;35803;53.096;5.844;2023-04-06T01:28:58;7.93;;;4.40;;
49910;SDS011;35803;53.096;5.844;2023-04-06T01:31:23;6.60;;;4.10;;
49910;SDS011;35803;53.096;5.844;2023-04-06T01:33:49;6.75;;;4.68;;
49910;SDS011;35803;53.096;5.844;2023-04-06T01:36:15;11.65;;;5.47;;
49910;SDS011;35803;53.096;5.844;2023-04-06T01:38:41;6.75;;;4.55;;
49910;SDS011;35803;53.096;5.844;2023-04-06T01:41:07;9.02;;;5.10;;
49910;SDS011;35803;53.096;5.844;2023-04-06T01:43:33;9.27;;;4.85;;
49910;SDS011;35803;53.096;5.844;2023-04-06T01:45:58;6.22;;;4.55;;
49910;SDS011;35803;53.096;5.844;2023-04-06T01:48:25;7.22;;;4.68;;
49910;SDS011;35803;53.096;5.844;2023-04-06T01:50:50;7.13;;;4.47;;
49910;SDS011;35803;53.096;5.844;2023-04-06T01:53:16;7.45;;;4.70;;
49910;SDS011;35803;53.096;5.844;2023-04-06T01:55:42;7.72;;;5.25;;
49910;SDS011;35803;53.096;5.844;2023-04-06T01:58:07;10.38;;;4.90;;
49910;SDS011;35803;53.096;5.844;2023-04-06T02:00:33;7.65;;;4.50;;
49910;SDS011;35803;53.096;5.844;2023-04-06T02:02:58;7.80;;;4.80;;
49910;SDS011;35803;53.096;5.844;2023-04-06T02:05:24;8.30;;;4.75;;
49910;SDS011;35803;53.096;5.844;2023-04-06T02:07:50;9.02;;;5.40;;
49910;SDS011;35803;53.096;5.844;2023-04-06T02:10:16;6.53;;;4.20;;
49910;SDS011;35803;53.096;5.844;2023-04-06T02:12:42;8.55;;;4.45;;
49910;SDS011;35803;53.096;5.844;2023-04-06T02:15:08;6.40;;;4.53;;
49910;SDS011;35803;53.096;5.844;2023-04-06T02:17:33;7.35;;;4.97;;
49910;SDS011;35803;53.096;5.844;2023-04-06T02:19:59;5.82;;;4.50;;
49910;SDS011;35803;53.096;5.844;2023-04-06T02:22:24;7.47;;;4.88;;
49910;SDS011;35803;53.096;5.844;2023-04-06T02:24:50;6.47;;;4.28;;
49910;SDS011;35803;53.096;5.844;2023-04-06T02:27:15;9.57;;;4.82;;
49910;SDS011;35803;53.096;5.844;2023-04-06T02:29:41;8.57;;;5.05;;
49910;SDS011;35803;53.096;5.844;2023-04-06T02:32:06;7.47;;;4.50;;
49910;SDS011;35803;53.096;5.844;2023-04-06T02:34:32;7.90;;;4.93;;
49910;SDS011;35803;53.096;5.844;2023-04-06T02:36:58;6.47;;;4.45;;
49910;SDS011;35803;53.096;5.844;2023-04-06T02:39:23;7.78;;;5.10;;
49910;SDS011;35803;53.096;5.844;2023-04-06T02:41:49;9.25;;;4.72;;
49910;SDS011;35803;53.096;5.844;2023-04-06T02:44:15;7.07;;;4.78;;
49910;SDS011;35803;53.096;5.844;2023-04-06T02:46:40;7.15;;;4.82;;
49910;SDS011;35803;53.096;5.844;2023-04-06T02:49:06;7.78;;;4.60;;
49910;SDS011;35803;53.096;5.844;2023-04-06T02:51:32;14.82;;;5.65;;
49910;SDS011;35803;53.096;5.844;2023-04-06T02:53:58;7.15;;;4.80;;
49910;SDS011;35803;53.096;5.844;2023-04-06T02:56:24;6.47;;;4.60;;
49910;SDS011;35803;53.096;5.844;2023-04-06T02:58:50;5.82;;;4.60;;
49910;SDS011;35803;53.096;5.844;2023-04-06T03:01:15;8.18;;;4.78;;
49910;SDS011;35803;53.096;5.844;2023-04-06T03:03:41;10.93;;;5.47;;
49910;SDS011;35803;53.096;5.844;2023-04-06T03:06:06;10.95;;;5.18;;
49910;SDS011;35803;53.096;5.844;2023-04-06T03:08:32;9.52;;;5.10;;
49910;SDS011;35803;53.096;5.844;2023-04-06T03:10:57;7.22;;;5.05;;
49910;SDS011;35803;53.096;5.844;2023-04-06T03:13:23;9.32;;;5.13;;
49910;SDS011;35803;53.096;5.844;2023-04-06T03:15:49;8.00;;;4.85;;
49910;SDS011;35803;53.096;5.844;2023-04-06T03:18:14;8.52;;;5.03;;
49910;SDS011;35803;53.096;5.844;2023-04-06T03:20:40;8.02;;;5.13;;
49910;SDS011;35803;53.096;5.844;2023-04-06T03:23:05;8.32;;;5.25;;
49910;SDS011;35803;53.096;5.844;2023-04-06T03:25:31;7.40;;;5.20;;
49910;SDS011;35803;53.096;5.844;2023-04-06T03:27:57;7.00;;;4.93;;
49910;SDS011;35803;53.096;5.844;2023-04-06T03:30:22;7.28;;;5.22;;
49910;SDS011;35803;53.096;5.844;2023-04-06T03:32:48;9.20;;;5.13;;
49910;SDS011;35803;53.096;5.844;2023-04-06T03:35:13;8.30;;;5.10;;
49910;SDS011;35803;53.096;5.844;2023-04-06T03:37:39;7.63;;;4.90;;
49910;SDS011;35803;53.096;5.844;2023-04-06T03:40:05;7.15;;;4.93;;
49910;SDS011;35803;53.096;5.844;2023-04-06T03:42:31;9.10;;;5.95;;
49910;SDS011;35803;53.096;5.844;2023-04-06T03:44:58;9.40;;;4.75;;
49910;SDS011;35803;53.096;5.844;2023-04-06T03:47:24;8.98;;;5.07;;
49910;SDS011;35803;53.096;5.844;2023-04-06T03:49:49;10.18;;;5.03;;
49910;SDS011;35803;53.096;5.844;2023-04-06T03:52:15;8.55;;;5.10;;
49910;SDS011;35803;53.096;5.844;2023-04-06T03:54:40;9.73;;;5.15;;
49910;SDS011;35803;53.096;5.844;2023-04-06T03:57:06;7.90;;;5.20;;
49910;SDS011;35803;53.096;5.844;2023-04-06T03:59:31;10.88;;;5.13;;
49910;SDS011;35803;53.096;5.844;2023-04-06T04:01:57;7.32;;;5.15;;
49910;SDS011;35803;53.096;5.844;2023-04-06T04:04:22;8.77;;;5.15;;
49910;SDS011;35803;53.096;5.844;2023-04-06T04:06:48;10.38;;;5.60;;
49910;SDS011;35803;53.096;5.844;2023-04-06T04:09:13;6.55;;;4.90;;
49910;SDS011;35803;53.096;5.844;2023-04-06T04:11:39;11.13;;;5.55;;
49910;SDS011;35803;53.096;5.844;2023-04-06T04:14:05;7.60;;;5.30;;
49910;SDS011;35803;53.096;5.844;2023-04-06T04:16:30;8.23;;;5.10;;
49910;SDS011;35803;53.096;5.844;2023-04-06T04:18:56;8.20;;;5.65;;
49910;SDS011;35803;53.096;5.844;2023-04-06T04:21:23;9.98;;;5.70;;
49910;SDS011;35803;53.096;5.844;2023-04-06T04:23:48;10.57;;;5.28;;
49910;SDS011;35803;53.096;5.844;2023-04-06T04:26:14;9.90;;;5.65;;
49910;SDS011;35803;53.096;5.844;2023-04-06T04:28:40;8.55;;;5.45;;
49910;SDS011;35803;53.096;5.844;2023-04-06T04:31:06;9.40;;;5.82;;
49910;SDS011;35803;53.096;5.844;2023-04-06T04:33:31;9.57;;;5.50;;
49910;SDS011;35803;53.096;5.844;2023-04-06T04:35:56;7.45;;;5.28;;
49910;SDS011;35803;53.096;5.844;2023-04-06T04:38:22;8.70;;;5.68;;
49910;SDS011;35803;53.096;5.844;2023-04-06T04:40:47;9.07;;;5.63;;
49910;SDS011;35803;53.096;5.844;2023-04-06T04:43:13;10.07;;;5.40;;
49910;SDS011;35803;53.096;5.844;2023-04-06T04:45:38;9.27;;;5.05;;
49910;SDS011;35803;53.096;5.844;2023-04-06T04:48:04;9.27;;;5.25;;
49910;SDS011;35803;53.096;5.844;2023-04-06T04:50:30;11.48;;;5.28;;
49910;SDS011;35803;53.096;5.844;2023-04-06T04:52:56;8.75;;;5.65;;
49910;SDS011;35803;53.096;5.844;2023-04-06T04:55:22;8.80;;;6.07;;
49910;SDS011;35803;53.096;5.844;2023-04-06T04:57:48;9.32;;;5.35;;
49910;SDS011;35803;53.096;5.844;2023-04-06T05:00:13;8.25;;;5.13;;
49910;SDS011;35803;53.096;5.844;2023-04-06T05:02:39;8.55;;;5.47;;
49910;SDS011;35803;53.096;5.844;2023-04-06T05:05:05;8.43;;;5.72;;
49910;SDS011;35803;53.096;5.844;2023-04-06T05:07:31;10.30;;;5.90;;
49910;SDS011;35803;53.096;5.844;2023-04-06T05:09:56;8.65;;;5.35;;
49910;SDS011;35803;53.096;5.844;2023-04-06T05:12:22;8.70;;;5.15;;
49910;SDS011;35803;53.096;5.844;2023-04-06T05:14:48;8.45;;;5.78;;
49910;SDS011;35803;53.096;5.844;2023-04-06T05:17:14;8.13;;;5.10;;
49910;SDS011;35803;53.096;5.844;2023-04-06T05:19:39;11.52;;;6.35;;
49910;SDS011;35803;53.096;5.844;2023-04-06T05:22:05;8.45;;;5.90;;
49910;SDS011;35803;53.096;5.844;2023-04-06T05:24:31;12.57;;;6.25;;
49910;SDS011;35803;53.096;5.844;2023-04-06T05:26:56;10.18;;;6.03;;
49910;SDS011;35803;53.096;5.844;2023-04-06T05:29:22;9.60;;;6.18;;
49910;SDS011;35803;53.096;5.844;2023-04-06T05:31:47;9.43;;;6.35;;
49910;SDS011;35803;53.096;5.844;2023-04-06T05:34:13;10.95;;;6.03;;
49910;SDS011;35803;53.096;5.844;2023-04-06T05:36:38;8.68;;;5.90;;
49910;SDS011;35803;53.096;5.844;2023-04-06T05:39:05;9.10;;;5.57;;
49910;SDS011;35803;53.096;5.844;2023-04-06T05:41:31;9.50;;;5.97;;
49910;SDS011;35803;53.096;5.844;2023-04-06T05:43:56;10.88;;;6.50;;
49910;SDS011;35803;53.096;5.844;2023-04-06T05:46:22;8.57;;;5.93;;
49910;SDS011;35803;53.096;5.844;2023-04-06T05:48:48;9.15;;;5.75;;
49910;SDS011;35803;53.096;5.844;2023-04-06T05:51:13;13.13;;;6.28;;
49910;SDS011;35803;53.096;5.844;2023-04-06T05:53:39;11.35;;;6.32;;
49910;SDS011;35803;53.096;5.844;2023-04-06T05:56:04;10.15;;;5.70;;
49910;SDS011;35803;53.096;5.844;2023-04-06T05:58:30;10.02;;;5.88;;
49910;SDS011;35803;53.096;5.844;2023-04-06T06:00:59;11.90;;;6.68;;
49910;SDS011;35803;53.096;5.844;2023-04-06T06:03:25;8.20;;;5.55;;
49910;SDS011;35803;53.096;5.844;2023-04-06T06:05:51;9.60;;;6.18;;
49910;SDS011;35803;53.096;5.844;2023-04-06T06:08:16;10.15;;;6.55;;
49910;SDS011;35803;53.096;5.844;2023-04-06T06:10:42;12.07;;;5.97;;
49910;SDS011;35803;53.096;5.844;2023-04-06T06:13:08;11.95;;;5.93;;
49910;SDS011;35803;53.096;5.844;2023-04-06T06:15:34;13.02;;;5.88;;
49910;SDS011;35803;53.096;5.844;2023-04-06T06:17:59;9.85;;;6.22;;
49910;SDS011;35803;53.096;5.844;2023-04-06T06:20:25;11.13;;;6.50;;
49910;SDS011;35803;53.096;5.844;2023-04-06T06:22:51;10.02;;;5.95;;
49910;SDS011;35803;53.096;5.844;2023-04-06T06:25:17;10.85;;;6.25;;
49910;SDS011;35803;53.096;5.844;2023-04-06T06:27:42;10.90;;;6.15;;
49910;SDS011;35803;53.096;5.844;2023-04-06T06:30:08;10.15;;;6.20;;
49910;SDS011;35803;53.096;5.844;2023-04-06T06:32:34;9.43;;;6.32;;
49910;SDS011;35803;53.096;5.844;2023-04-06T06:35:00;9.90;;;6.05;;
49910;SDS011;35803;53.096;5.844;2023-04-06T06:37:25;10.35;;;5.93;;
49910;SDS011;35803;53.096;5.844;2023-04-06T06:39:51;11.38;;;6.28;;
49910;SDS011;35803;53.096;5.844;2023-04-06T06:42:16;12.57;;;6.47;;
49910;SDS011;35803;53.096;5.844;2023-04-06T06:44:42;9.85;;;6.07;;
49910;SDS011;35803;53.096;5.844;2023-04-06T06:47:07;9.15;;;5.95;;
49910;SDS011;35803;53.096;5.844;2023-04-06T06:49:33;9.65;;;5.45;;
49910;SDS011;35803;53.096;5.844;2023-04-06T06:51:58;10.23;;;5.95;;
49910;SDS011;35803;53.096;5.844;2023-04-06T06:54:24;10.13;;;6.45;;
49910;SDS011;35803;53.096;5.844;2023-04-06T06:56:49;12.07;;;6.85;;
49910;SDS011;35803;53.096;5.844;2023-04-06T06:59:15;9.93;;;6.10;;
49910;SDS011;35803;53.096;5.844;2023-04-06T07:01:41;13.07;;;5.82;;
49910;SDS011;35803;53.096;5.844;2023-04-06T07:04:06;13.43;;;6.80;;
49910;SDS011;35803;53.096;5.844;2023-04-06T07:06:35;10.13;;;6.43;;
49910;SDS011;35803;53.096;5.844;2023-04-06T07:09:01;12.07;;;6.32;;
49910;SDS011;35803;53.096;5.844;2023-04-06T07:11:28;10.40;;;6.57;;
49910;SDS011;35803;53.096;5.844;2023-04-06T07:13:54;13.68;;;7.22;;
49910;SDS011;35803;53.096;5.844;2023-04-06T07:16:20;14.30;;;6.55;;
49910;SDS011;35803;53.096;5.844;2023-04-06T07:18:46;10.52;;;6.47;;
49910;SDS011;35803;53.096;5.844;2023-04-06T07:21:11;13.52;;;6.57;;
49910;SDS011;35803;53.096;5.844;2023-04-06T07:23:37;9.50;;;6.05;;
49910;SDS011;35803;53.096;5.844;2023-04-06T07:26:02;12.38;;;6.93;;
49910;SDS011;35803;53.096;5.844;2023-04-06T07:28:28;10.52;;;6.05;;
49910;SDS011;35803;53.096;5.844;2023-04-06T07:30:54;10.40;;;6.30;;
49910;SDS011;35803;53.096;5.844;2023-04-06T07:33:19;13.15;;;6.53;;
49910;SDS011;35803;53.096;5.844;2023-04-06T07:35:45;11.80;;;6.65;;
49910;SDS011;35803;53.096;5.844;2023-04-06T07:38:11;10.77;;;6.47;;
49910;SDS011;35803;53.096;5.844;2023-04-06T07:40:36;9.73;;;6.13;;
49910;SDS011;35803;53.096;5.844;2023-04-06T07:43:02;12.23;;;6.68;;
49910;SDS011;35803;53.096;5.844;2023-04-06T07:45:28;10.75;;;6.07;;
49910;SDS011;35803;53.096;5.844;2023-04-06T07:47:54;10.48;;;6.13;;
49910;SDS011;35803;53.096;5.844;2023-04-06T07:50:20;11.38;;;6.45;;
49910;SDS011;35803;53.096;5.844;2023-04-06T07:52:45;12.57;;;6.60;;
49910;SDS011;35803;53.096;5.844;2023-04-06T07:55:11;10.77;;;6.72;;
49910;SDS011;35803;53.096;5.844;2023-04-06T07:57:36;11.95;;;6.50;;
49910;SDS011;35803;53.096;5.844;2023-04-06T08:00:02;10.65;;;6.05;;
49910;SDS011;35803;53.096;5.844;2023-04-06T08:02:29;11.10;;;6.18;;
49910;SDS011;35803;53.096;5.844;2023-04-06T08:04:57;11.60;;;6.68;;
49910;SDS011;35803;53.096;5.844;2023-04-06T08:07:23;12.38;;;6.80;;
49910;SDS011;35803;53.096;5.844;2023-04-06T08:09:48;10.90;;;6.60;;
49910;SDS011;35803;53.096;5.844;2023-04-06T08:12:14;9.13;;;6.10;;
49910;SDS011;35803;53.096;5.844;2023-04-06T08:14:39;11.25;;;6.68;;
49910;SDS011;35803;53.096;5.844;2023-04-06T08:17:05;10.70;;;6.53;;
49910;SDS011;35803;53.096;5.844;2023-04-06T08:19:31;11.57;;;6.78;;
49910;SDS011;35803;53.096;5.844;2023-04-06T08:21:57;9.88;;;6.28;;
49910;SDS011;35803;53.096;5.844;2023-04-06T08:24:22;13.57;;;7.00;;
49910;SDS011;35803;53.096;5.844;2023-04-06T08:26:48;11.93;;;6.43;;
49910;SDS011;35803;53.096;5.844;2023-04-06T08:29:14;10.85;;;6.82;;
49910;SDS011;35803;53.096;5.844;2023-04-06T08:31:39;14.48;;;7.75;;
49910;SDS011;35803;53.096;5.844;2023-04-06T08:34:05;12.93;;;6.90;;
49910;SDS011;35803;53.096;5.844;2023-04-06T08:36:31;12.88;;;6.97;;
49910;SDS011;35803;53.096;5.844;2023-04-06T08:38:56;15.13;;;7.82;;
49910;SDS011;35803;53.096;5.844;2023-04-06T08:41:22;13.88;;;7.97;;
49910;SDS011;35803;53.096;5.844;2023-04-06T08:43:49;12.73;;;7.22;;
49910;SDS011;35803;53.096;5.844;2023-04-06T08:46:15;14.77;;;7.38;;
49910;SDS011;35803;53.096;5.844;2023-04-06T08:48:42;13.57;;;7.30;;
49910;SDS011;35803;53.096;5.844;2023-04-06T08:51:11;13.63;;;7.50;;
49910;SDS011;35803;53.096;5.844;2023-04-06T08:53:37;14.98;;;8.65;;
49910;SDS011;35803;53.096;5.844;2023-04-06T08:56:03;13.57;;;8.05;;
49910;SDS011;35803;53.096;5.844;2023-04-06T08:58:32;13.43;;;7.35;;
49910;SDS011;35803;53.096;5.844;2023-04-06T09:01:00;14.35;;;8.43;;
49910;SDS011;35803;53.096;5.844;2023-04-06T09:03:27;15.90;;;8.15;;
49910;SDS011;35803;53.096;5.844;2023-04-06T09:05:54;14.43;;;8.43;;
49910;SDS011;35803;53.096;5.844;2023-04-06T09:08:19;13.65;;;7.70;;
49910;SDS011;35803;53.096;5.844;2023-04-06T09:10:45;13.40;;;7.57;;
49910;SDS011;35803;53.096;5.844;2023-04-06T09:13:11;12.98;;;7.65;;
49910;SDS011;35803;53.096;5.844;2023-04-06T09:15:36;15.57;;;8.20;;
49910;SDS011;35803;53.096;5.844;2023-04-06T09:18:05;14.55;;;7.70;;
49910;SDS011;35803;53.096;5.844;2023-04-06T09:20:34;15.20;;;8.73;;
49910;SDS011;35803;53.096;5.844;2023-04-06T09:23:00;17.00;;;8.25;;
49910;SDS011;35803;53.096;5.844;2023-04-06T09:25:25;16.00;;;8.80;;
49910;SDS011;35803;53.096;5.844;2023-04-06T09:28:01;15.38;;;8.63;;
49910;SDS011;35803;53.096;5.844;2023-04-06T09:30:28;17.23;;;8.52;;
49910;SDS011;35803;53.096;5.844;2023-04-06T09:32:54;15.80;;;8.15;;
49910;SDS011;35803;53.096;5.844;2023-04-06T09:35:21;17.38;;;8.95;;
49910;SDS011;35803;53.096;5.844;2023-04-06T09:37:48;14.77;;;8.95;;
49910;SDS011;35803;53.096;5.844;2023-04-06T09:40:14;14.85;;;8.20;;
49910;SDS011;35803;53.096;5.844;2023-04-06T09:42:44;14.95;;;8.95;;
49910;SDS011;35803;53.096;5.844;2023-04-06T09:45:11;15.63;;;9.32;;
49910;SDS011;35803;53.096;5.844;2023-04-06T09:47:37;18.15;;;8.95;;
49910;SDS011;35803;53.096;5.844;2023-04-06T09:50:02;16.30;;;8.85;;
49910;SDS011;35803;53.096;5.844;2023-04-06T09:52:32;15.68;;;8.98;;
49910;SDS011;35803;53.096;5.844;2023-04-06T09:55:02;16.80;;;9.45;;
49910;SDS011;35803;53.096;5.844;2023-04-06T09:57:31;15.77;;;8.90;;
49910;SDS011;35803;53.096;5.844;2023-04-06T10:00:07;18.73;;;9.00;;
49910;SDS011;35803;53.096;5.844;2023-04-06T10:05:30;14.55;;;8.48;;
49910;SDS011;35803;53.096;5.844;2023-04-06T10:08:02;17.92;;;8.93;;
49910;SDS011;35803;53.096;5.844;2023-04-06T10:10:31;15.95;;;9.30;;
49910;SDS011;35803;53.096;5.844;2023-04-06T10:12:57;18.52;;;8.88;;
49910;SDS011;35803;53.096;5.844;2023-04-06T10:15:23;18.80;;;8.88;;
49910;SDS011;35803;53.096;5.844;2023-04-06T10:17:49;17.15;;;9.23;;
49910;SDS011;35803;53.096;5.844;2023-04-06T10:22:53;17.52;;;9.38;;
49910;SDS011;35803;53.096;5.844;2023-04-06T10:25:31;16.85;;;9.35;;
49910;SDS011;35803;53.096;5.844;2023-04-06T10:28:01;17.60;;;9.60;;
49910;SDS011;35803;53.096;5.844;2023-04-06T10:30:30;20.25;;;9.88;;
49910;SDS011;35803;53.096;5.844;2023-04-06T10:32:56;16.77;;;8.80;;
49910;SDS011;35803;53.096;5.844;2023-04-06T10:35:22;18.27;;;9.70;;
49910;SDS011;35803;53.096;5.844;2023-04-06T10:40:24;18.52;;;9.52;;
49910;SDS011;35803;53.096;5.844;2023-04-06T10:42:51;17.92;;;9.00;;
49910;SDS011;35803;53.096;5.844;2023-04-06T10:45:21;17.50;;;9.68;;
49910;SDS011;35803;53.096;5.844;2023-04-06T10:47:47;16.85;;;10.65;;
49910;SDS011;35803;53.096;5.844;2023-04-06T10:50:14;19.63;;;9.55;;
49910;SDS011;35803;53.096;5.844;2023-04-06T10:52:41;21.08;;;9.77;;
49910;SDS011;35803;53.096;5.844;2023-04-06T10:55:08;19.35;;;9.77;;
49910;SDS011;35803;53.096;5.844;2023-04-06T10:57:37;18.80;;;10.02;;
49910;SDS011;35803;53.096;5.844;2023-04-06T11:00:06;17.35;;;10.10;;
49910;SDS011;35803;53.096;5.844;2023-04-06T11:02:33;20.05;;;10.45;;
49910;SDS011;35803;53.096;5.844;2023-04-06T11:05:00;20.08;;;10.18;;
49910;SDS011;35803;53.096;5.844;2023-04-06T11:07:26;20.80;;;10.32;;
49910;SDS011;35803;53.096;5.844;2023-04-06T11:09:54;20.98;;;10.25;;
49910;SDS011;35803;53.096;5.844;2023-04-06T11:12:20;21.55;;;10.30;;
49910;SDS011;35803;53.096;5.844;2023-04-06T11:14:57;22.67;;;10.77;;
49910;SDS011;35803;53.096;5.844;2023-04-06T11:17:34;21.08;;;10.20;;
49910;SDS011;35803;53.096;5.844;2023-04-06T11:20:01;20.63;;;10.75;;
49910;SDS011;35803;53.096;5.844;2023-04-06T11:22:27;22.95;;;11.13;;
49910;SDS011;35803;53.096;5.844;2023-04-06T11:25:04;21.60;;;9.75;;
49910;SDS011;35803;53.096;5.844;2023-04-06T11:27:30;18.73;;;9.88;;
49910;SDS011;35803;53.096;5.844;2023-04-06T11:29:58;20.38;;;10.13;;
49910;SDS011;35803;53.096;5.844;2023-04-06T11:32:24;20.40;;;9.80;;
49910;SDS011;35803;53.096;5.844;2023-04-06T11:34:50;19.55;;;9.63;;
49910;SDS011;35803;53.096;5.844;2023-04-06T11:37:15;20.83;;;10.05;;
49910;SDS011;35803;53.096;5.844;2023-04-06T11:39:48;19.20;;;9.80;;
49910;SDS011;35803;53.096;5.844;2023-04-06T11:44:55;20.20;;;9.80;;
49910;SDS011;35803;53.096;5.844;2023-04-06T11:47:27;19.63;;;9.75;;
49910;SDS011;35803;53.096;5.844;2023-04-06T11:49:54;18.02;;;9.48;;
49910;SDS011;35803;53.096;5.844;2023-04-06T11:52:23;18.50;;;9.70;;
49910;SDS011;35803;53.096;5.844;2023-04-06T11:54:51;17.70;;;9.50;;
49910;SDS011;35803;53.096;5.844;2023-04-06T11:57:18;17.85;;;9.25;;
49910;SDS011;35803;53.096;5.844;2023-04-06T11:59:44;19.40;;;10.25;;
49910;SDS011;35803;53.096;5.844;2023-04-06T12:02:10;18.77;;;9.80;;
49910;SDS011;35803;53.096;5.844;2023-04-06T12:04:36;19.98;;;10.63;;
49910;SDS011;35803;53.096;5.844;2023-04-06T12:07:02;19.42;;;10.52;;
49910;SDS011;35803;53.096;5.844;2023-04-06T12:09:27;18.65;;;9.93;;
49910;SDS011;35803;53.096;5.844;2023-04-06T12:11:53;21.02;;;10.07;;
49910;SDS011;35803;53.096;5.844;2023-04-06T12:14:19;17.45;;;9.48;;
49910;SDS011;35803;53.096;5.844;2023-04-06T12:16:46;20.05;;;10.25;;
49910;SDS011;35803;53.096;5.844;2023-04-06T12:19:11;18.42;;;9.07;;
49910;SDS011;35803;53.096;5.844;2023-04-06T12:21:37;15.65;;;7.22;;
49910;SDS011;35803;53.096;5.844;2023-04-06T12:24:03;15.20;;;7.05;;
49910;SDS011;35803;53.096;5.844;2023-04-06T12:26:29;14.65;;;7.97;;
49910;SDS011;35803;53.096;5.844;2023-04-06T12:28:55;14.13;;;7.30;;
49910;SDS011;35803;53.096;5.844;2023-04-06T12:31:21;15.38;;;8.02;;
49910;SDS011;35803;53.096;5.844;2023-04-06T12:33:48;15.32;;;7.93;;
49910;SDS011;35803;53.096;5.844;2023-04-06T12:36:15;13.90;;;7.13;;
49910;SDS011;35803;53.096;5.844;2023-04-06T12:38:44;10.00;;;5.57;;
49910;SDS011;35803;53.096;5.844;2023-04-06T12:41:11;6.70;;;4.32;;
49910;SDS011;35803;53.096;5.844;2023-04-06T12:43:37;9.15;;;5.35;;
49910;SDS011;35803;53.096;5.844;2023-04-06T12:46:04;9.27;;;5.55;;
49910;SDS011;35803;53.096;5.844;2023-04-06T12:48:29;11.85;;;5.35;;
49910;SDS011;35803;53.096;5.844;2023-04-06T12:50:58;8.90;;;4.82;;
49910;SDS011;35803;53.096;5.844;2023-04-06T12:53:25;9.55;;;5.43;;
49910;SDS011;35803;53.096;5.844;2023-04-06T12:55:51;8.70;;;5.40;;
49910;SDS011;35803;53.096;5.844;2023-04-06T12:58:18;12.02;;;5.97;;
49910;SDS011;35803;53.096;5.844;2023-04-06T13:00:44;10.57;;;5.72;;
49910;SDS011;35803;53.096;5.844;2023-04-06T13:03:09;9.77;;;6.13;;
49910;SDS011;35803;53.096;5.844;2023-04-06T13:05:35;10.38;;;5.97;;
49910;SDS011;35803;53.096;5.844;2023-04-06T13:08:00;8.18;;;4.82;;
49910;SDS011;35803;53.096;5.844;2023-04-06T13:10:26;7.25;;;4.80;;
49910;SDS011;35803;53.096;5.844;2023-04-06T13:12:52;12.05;;;5.45;;
49910;SDS011;35803;53.096;5.844;2023-04-06T13:15:17;9.93;;;6.03;;
49910;SDS011;35803;53.096;5.844;2023-04-06T13:17:43;10.45;;;6.32;;
49910;SDS011;35803;53.096;5.844;2023-04-06T13:20:09;11.50;;;6.60;;
49910;SDS011;35803;53.096;5.844;2023-04-06T13:22:34;14.15;;;7.68;;
49910;SDS011;35803;53.096;5.844;2023-04-06T13:25:00;16.73;;;7.93;;
49910;SDS011;35803;53.096;5.844;2023-04-06T13:27:26;14.75;;;7.50;;
49910;SDS011;35803;53.096;5.844;2023-04-06T13:29:52;13.73;;;7.13;;
49910;SDS011;35803;53.096;5.844;2023-04-06T13:32:20;17.52;;;8.48;;
49910;SDS011;35803;53.096;5.844;2023-04-06T13:34:47;13.77;;;7.63;;
49910;SDS011;35803;53.096;5.844;2023-04-06T13:37:14;15.68;;;7.90;;
49910;SDS011;35803;53.096;5.844;2023-04-06T13:39:40;13.77;;;8.25;;
49910;SDS011;35803;53.096;5.844;2023-04-06T13:42:06;11.63;;;7.68;;
49910;SDS011;35803;53.096;5.844;2023-04-06T13:44:32;15.63;;;7.82;;
49910;SDS011;35803;53.096;5.844;2023-04-06T13:46:58;14.52;;;7.65;;
49910;SDS011;35803;53.096;5.844;2023-04-06T13:49:23;14.77;;;7.55;;
49910;SDS011;35803;53.096;5.844;2023-04-06T13:51:49;13.45;;;7.43;;
49910;SDS011;35803;53.096;5.844;2023-04-06T13:54:14;14.57;;;7.78;;
49910;SDS011;35803;53.096;5.844;2023-04-06T13:56:40;17.40;;;7.63;;
49910;SDS011;35803;53.096;5.844;2023-04-06T13:59:05;16.73;;;8.50;;
49910;SDS011;35803;53.096;5.844;2023-04-06T14:01:31;14.60;;;8.70;;
49910;SDS011;35803;53.096;5.844;2023-04-06T14:03:57;15.93;;;8.30;;
49910;SDS011;35803;53.096;5.844;2023-04-06T14:06:22;18.40;;;9.38;;
49910;SDS011;35803;53.096;5.844;2023-04-06T14:08:48;15.60;;;8.57;;
49910;SDS011;35803;53.096;5.844;2023-04-06T14:11:14;19.15;;;9.40;;
49910;SDS011;35803;53.096;5.844;2023-04-06T14:13:40;16.27;;;9.27;;
49910;SDS011;35803;53.096;5.844;2023-04-06T14:16:06;17.00;;;8.63;;
49910;SDS011;35803;53.096;5.844;2023-04-06T14:18:32;20.02;;;9.88;;
49910;SDS011;35803;53.096;5.844;2023-04-06T14:20:59;17.80;;;9.50;;
49910;SDS011;35803;53.096;5.844;2023-04-06T14:23:25;17.42;;;9.45;;
49910;SDS011;35803;53.096;5.844;2023-04-06T14:26:00;17.42;;;10.00;;
49910;SDS011;35803;53.096;5.844;2023-04-06T14:28:29;14.68;;;9.00;;
49910;SDS011;35803;53.096;5.844;2023-04-06T14:30:56;19.08;;;10.23;;
49910;SDS011;35803;53.096;5.844;2023-04-06T14:33:21;18.23;;;10.05;;
49910;SDS011;35803;53.096;5.844;2023-04-06T14:35:47;17.90;;;10.15;;
49910;SDS011;35803;53.096;5.844;2023-04-06T14:38:12;17.92;;;10.25;;
49910;SDS011;35803;53.096;5.844;2023-04-06T14:40:38;21.42;;;10.82;;
49910;SDS011;35803;53.096;5.844;2023-04-06T14:43:03;24.35;;;11.82;;